createdAt,value
2023-02-23T00:00:33.074Z,74.10
2023-02-23T00:03:05.181Z,74.00
2023-02-23T00:05:37.469Z,74.10
2023-02-23T00:08:11.901Z,74.00
2023-02-23T00:10:44.643Z,73.90
2023-02-23T00:13:16.544Z,73.90
2023-02-23T00:15:48.373Z,73.50
2023-02-23T00:18:21.076Z,72.70
2023-02-23T00:20:57.729Z,72.40
2023-02-23T00:23:32.251Z,72.30
2023-02-23T00:26:04.463Z,72.50
2023-02-23T00:28:36.353Z,72.80
2023-02-23T00:31:08.399Z,73.10
2023-02-23T00:33:41.491Z,73.40
2023-02-23T00:36:15.274Z,73.70
2023-02-23T00:38:53.674Z,73.90
2023-02-23T00:41:28.596Z,74.30
2023-02-23T00:44:00.851Z,74.30
2023-02-23T00:46:32.705Z,74.60
2023-02-23T00:49:05.304Z,74.90
2023-02-23T00:51:37.764Z,75.30
2023-02-23T00:54:14.969Z,75.50
2023-02-23T00:56:47.410Z,75.90
2023-02-23T00:59:19.707Z,76.10
2023-02-23T01:01:52.604Z,76.40
2023-02-23T01:04:24.768Z,76.60
2023-02-23T01:06:56.933Z,76.80
2023-02-23T01:09:31.640Z,77.10
2023-02-23T01:12:07.685Z,77.30
2023-02-23T01:14:40.578Z,78.10
2023-02-23T01:17:12.687Z,77.80
2023-02-23T01:19:44.783Z,78.10
2023-02-23T01:22:16.864Z,78.40
2023-02-23T01:24:51.521Z,78.70
2023-02-23T01:27:24.144Z,79.00
2023-02-23T01:29:56.196Z,79.10
2023-02-23T01:32:28.243Z,79.40
2023-02-23T01:35:00.295Z,79.60
2023-02-23T01:37:35.514Z,79.90
2023-02-23T01:40:15.309Z,80.30
2023-02-23T01:42:47.573Z,80.70
2023-02-23T01:45:27.259Z,80.80
2023-02-23T01:48:03.925Z,81.20
2023-02-23T01:50:45.243Z,81.40
2023-02-23T01:53:21.482Z,81.80
2023-02-23T01:55:58.931Z,81.90
2023-02-23T01:58:32.427Z,82.20
2023-02-23T02:01:05.656Z,82.50
2023-02-23T02:03:45.025Z,82.80
2023-02-23T02:06:19.901Z,83.10
2023-02-23T02:08:55.301Z,83.30
2023-02-23T02:11:31.058Z,83.50
2023-02-23T02:14:12.944Z,83.70
2023-02-23T02:17:02.551Z,83.80
2023-02-23T02:20:13.751Z,84.20
2023-02-23T02:23:11.054Z,84.60
2023-02-23T02:25:55.841Z,84.50
2023-02-23T02:28:46.430Z,84.70
2023-02-23T02:31:58.950Z,85.20
2023-02-23T02:35:04.053Z,85.50
2023-02-23T02:37:56.831Z,85.60
2023-02-23T02:40:37.051Z,85.70
2023-02-23T02:43:16.822Z,85.70
2023-02-23T02:45:54.469Z,86.00
2023-02-23T02:48:35.536Z,86.20
2023-02-23T02:51:18.134Z,86.40
2023-02-23T02:54:06.998Z,86.60
2023-02-23T02:56:43.084Z,87.00
2023-02-23T02:59:36.018Z,87.00
2023-02-23T03:02:34.246Z,87.30
2023-02-23T03:05:32.478Z,87.50
2023-02-23T03:08:34.784Z,87.70
2023-02-23T03:11:30.879Z,87.80
2023-02-23T03:14:33.907Z,87.90
2023-02-23T03:17:31.774Z,88.10
2023-02-23T03:20:30.638Z,88.40
2023-02-23T03:23:29.765Z,88.60
2023-02-23T03:26:27.031Z,88.90
2023-02-23T03:29:24.359Z,89.10
2023-02-23T03:32:22.608Z,89.40
2023-02-23T03:35:20.996Z,89.60
2023-02-23T03:38:16.475Z,90.00
2023-02-23T03:41:10.241Z,90.10
2023-02-23T03:44:12.287Z,90.30
2023-02-23T03:47:07.021Z,90.40
2023-02-23T03:50:00.027Z,90.50
2023-02-23T03:52:54.546Z,90.60
2023-02-23T03:55:49.231Z,90.70
2023-02-23T03:58:44.424Z,90.80
2023-02-23T04:01:36.840Z,90.90
2023-02-23T04:04:31.031Z,91.00
2023-02-23T04:07:23.073Z,91.20
2023-02-23T04:10:14.071Z,91.30
2023-02-23T04:13:13.607Z,91.50
2023-02-23T04:15:50.952Z,91.70
2023-02-23T04:18:26.371Z,91.70
2023-02-23T04:21:01.964Z,91.80
2023-02-23T04:23:35.590Z,92.00
2023-02-23T04:26:07.620Z,92.00
2023-02-23T04:28:39.688Z,92.10
2023-02-23T04:31:11.697Z,92.20
2023-02-23T04:33:43.718Z,92.30
2023-02-23T04:36:18.310Z,92.40
2023-02-23T04:38:50.356Z,92.50
2023-02-23T04:41:22.462Z,92.50
2023-02-23T04:43:54.518Z,92.60
2023-02-23T04:46:26.603Z,92.70
2023-02-23T04:48:58.727Z,92.80
2023-02-23T04:51:34.112Z,92.90
2023-02-23T04:54:06.259Z,93.00
2023-02-23T04:56:39.555Z,93.10
2023-02-23T04:59:11.699Z,93.20
2023-02-23T05:01:43.825Z,93.20
2023-02-23T05:04:15.968Z,93.30
2023-02-23T05:06:50.774Z,93.40
2023-02-23T05:09:22.858Z,93.50
2023-02-23T05:11:55.608Z,93.50
2023-02-23T05:14:27.908Z,93.60
2023-02-23T05:16:59.964Z,93.70
2023-02-23T05:19:32.044Z,93.70
2023-02-23T05:22:06.649Z,93.80
2023-02-23T05:24:39.011Z,93.90
2023-02-23T05:27:13.976Z,93.90
2023-02-23T05:29:46.058Z,94.00
2023-02-23T05:32:18.224Z,94.10
2023-02-23T05:34:50.348Z,94.10
2023-02-23T05:37:25.055Z,94.20
2023-02-23T05:39:57.086Z,94.30
2023-02-23T05:42:29.149Z,94.40
2023-02-23T05:45:01.218Z,94.50
2023-02-23T05:47:35.590Z,94.60
2023-02-23T05:50:12.937Z,94.70
2023-02-23T05:52:47.710Z,94.80
2023-02-23T05:55:21.686Z,94.90
2023-02-23T05:57:53.898Z,94.90
2023-02-23T06:00:26.148Z,95.00
2023-02-23T06:02:58.369Z,95.10
2023-02-23T06:05:30.510Z,95.20
2023-02-23T06:08:06.048Z,95.20
2023-02-23T06:10:38.074Z,95.30
2023-02-23T06:13:10.543Z,95.40
2023-02-23T06:15:43.488Z,95.40
2023-02-23T06:18:15.846Z,95.40
2023-02-23T06:20:50.857Z,95.50
2023-02-23T06:23:25.473Z,95.50
2023-02-23T06:25:58.698Z,95.60
2023-02-23T06:28:30.812Z,95.60
2023-02-23T06:31:03.057Z,95.70
2023-02-23T06:33:35.364Z,95.70
2023-02-23T06:36:08.230Z,95.70
2023-02-23T06:38:42.832Z,95.80
2023-02-23T06:41:16.474Z,95.80
2023-02-23T06:43:48.633Z,95.80
2023-02-23T06:46:20.841Z,95.90
2023-02-23T06:48:55.848Z,96.00
2023-02-23T06:51:28.087Z,96.10
2023-02-23T06:54:02.698Z,96.10
2023-02-23T06:56:34.714Z,96.10
2023-02-23T06:59:07.395Z,96.20
2023-02-23T07:01:39.489Z,96.20
2023-02-23T07:04:11.871Z,96.30
2023-02-23T07:06:44.180Z,96.30
2023-02-23T07:09:18.936Z,96.40
2023-02-23T07:11:51.890Z,96.40
2023-02-23T07:14:26.955Z,96.40
2023-02-23T07:16:59.614Z,96.40
2023-02-23T07:19:32.055Z,96.40
2023-02-23T07:22:05.113Z,96.50
2023-02-23T07:24:39.892Z,96.60
2023-02-23T07:27:11.904Z,96.70
2023-02-23T07:29:43.927Z,96.70
2023-02-23T07:32:16.094Z,96.80
2023-02-23T07:34:48.189Z,97.00
2023-02-23T07:37:20.375Z,97.10
2023-02-23T07:39:55.042Z,97.30
2023-02-23T07:42:27.218Z,97.50
2023-02-23T07:45:01.895Z,97.60
2023-02-23T07:47:35.042Z,97.70
2023-02-23T07:50:10.041Z,97.70
2023-02-23T07:52:43.311Z,97.80
2023-02-23T07:55:18.571Z,97.90
2023-02-23T07:57:50.713Z,98.00
2023-02-23T08:00:25.132Z,98.10
2023-02-23T08:02:57.218Z,98.40
2023-02-23T08:05:32.853Z,98.40
2023-02-23T08:08:05.235Z,98.50
2023-02-23T08:10:40.136Z,98.70
2023-02-23T08:13:12.234Z,98.90
2023-02-23T08:15:44.343Z,99.00
2023-02-23T08:18:19.047Z,99.20
2023-02-23T08:20:51.196Z,99.50
2023-02-23T08:23:23.295Z,99.60
2023-02-23T08:25:59.758Z,99.70
2023-02-23T08:28:31.954Z,99.90
2023-02-23T08:31:08.728Z,99.90
2023-02-23T08:33:40.913Z,99.90
2023-02-23T08:36:12.997Z,99.90
2023-02-23T08:38:45.095Z,99.90
2023-02-23T08:41:20.249Z,99.90
2023-02-23T08:43:52.500Z,99.90
2023-02-23T08:46:24.545Z,99.90
2023-02-23T08:48:57.030Z,99.90
2023-02-23T08:51:31.891Z,99.90
2023-02-23T08:54:04.201Z,99.90
2023-02-23T08:56:39.022Z,99.90
2023-02-23T08:59:12.897Z,99.90
2023-02-23T09:01:44.987Z,99.90
2023-02-23T09:04:18.298Z,99.90
2023-02-23T09:06:50.639Z,99.90
2023-02-23T09:09:22.691Z,99.90
2023-02-23T09:11:59.096Z,99.90
2023-02-23T09:14:32.378Z,99.90
2023-02-23T09:17:04.528Z,99.90
2023-02-23T09:19:36.651Z,99.90
2023-02-23T09:22:08.711Z,99.90
2023-02-23T09:24:40.729Z,99.90
2023-02-23T09:27:15.588Z,99.90
2023-02-23T09:29:47.812Z,99.90
2023-02-23T09:32:19.947Z,99.90
2023-02-23T09:34:52.652Z,99.90
2023-02-23T09:37:25.289Z,99.90
2023-02-23T09:39:58.152Z,99.90
2023-02-23T09:42:47.701Z,99.90
2023-02-23T09:45:32.712Z,99.90
2023-02-23T09:48:13.075Z,99.90
2023-02-23T09:50:48.867Z,99.90
2023-02-23T09:53:35.790Z,99.90
2023-02-23T09:56:18.784Z,99.90
2023-02-23T09:58:55.489Z,99.90
2023-02-23T10:02:00.324Z,99.90
2023-02-23T10:04:40.865Z,99.90
2023-02-23T10:07:19.035Z,99.90
2023-02-23T10:10:15.917Z,99.90
2023-02-23T10:12:55.177Z,99.90
2023-02-23T10:15:40.828Z,99.90
2023-02-23T10:18:23.274Z,99.90
2023-02-23T10:21:05.654Z,99.90
2023-02-23T10:23:40.779Z,99.90
2023-02-23T10:26:15.667Z,99.90
2023-02-23T10:28:47.914Z,99.90
2023-02-23T10:31:28.420Z,99.90
2023-02-23T10:34:03.299Z,99.90
2023-02-23T10:36:36.421Z,99.90
2023-02-23T10:39:09.096Z,99.90
2023-02-23T10:41:42.038Z,99.90
2023-02-23T10:44:18.037Z,99.90
2023-02-23T10:46:55.709Z,99.90
2023-02-23T10:49:31.735Z,99.90
2023-02-23T10:52:03.691Z,99.90
2023-02-23T10:54:36.550Z,99.90
2023-02-23T10:57:08.891Z,99.60
2023-02-23T10:59:42.026Z,99.50
2023-02-23T11:02:23.415Z,99.30
2023-02-23T11:04:57.050Z,99.10
2023-02-23T11:07:29.943Z,98.90
2023-02-23T11:10:26.140Z,98.60
2023-02-23T11:12:58.049Z,98.20
2023-02-23T11:15:48.049Z,98.00
2023-02-23T11:18:24.971Z,97.50
2023-02-23T11:20:57.116Z,97.40
2023-02-23T11:23:30.097Z,97.20
2023-02-23T11:26:03.012Z,96.90
2023-02-23T11:28:38.974Z,96.50
2023-02-23T11:31:14.982Z,96.20
2023-02-23T11:33:50.255Z,95.90
2023-02-23T11:36:27.020Z,95.50
2023-02-23T11:39:04.424Z,94.90
2023-02-23T11:41:37.566Z,94.70
2023-02-23T11:44:19.604Z,94.50
2023-02-23T11:46:52.210Z,94.20
2023-02-23T11:49:29.400Z,94.10
2023-02-23T11:52:01.452Z,94.00
2023-02-23T11:54:34.114Z,93.80
2023-02-23T11:57:08.772Z,93.60
2023-02-23T11:59:41.264Z,93.60
2023-02-23T12:02:20.871Z,93.60
2023-02-23T12:05:02.412Z,93.50
2023-02-23T12:07:41.822Z,93.40
2023-02-23T12:10:16.443Z,93.40
2023-02-23T12:12:58.235Z,93.40
2023-02-23T12:15:39.940Z,93.20
2023-02-23T12:18:19.225Z,93.50
2023-02-23T12:20:56.120Z,93.80
2023-02-23T12:23:32.698Z,93.90
2023-02-23T12:26:11.665Z,94.00
2023-02-23T12:28:51.617Z,92.80
2023-02-23T12:31:28.506Z,92.10
2023-02-23T12:34:02.513Z,91.70
2023-02-23T12:36:40.151Z,91.20
2023-02-23T12:39:19.130Z,90.50
2023-02-23T12:41:59.456Z,88.70
2023-02-23T12:44:40.196Z,85.90
2023-02-23T12:47:21.863Z,84.30
2023-02-23T12:50:07.615Z,83.30
2023-02-23T12:52:48.140Z,82.90
2023-02-23T12:55:30.968Z,81.50
2023-02-23T12:58:07.965Z,80.80
2023-02-23T13:00:50.466Z,80.60
2023-02-23T13:03:40.818Z,80.30
2023-02-23T13:06:22.991Z,80.00
2023-02-23T13:09:11.351Z,79.60
2023-02-23T13:11:48.297Z,79.10
2023-02-23T13:14:23.391Z,79.10
2023-02-23T13:16:57.558Z,78.90
2023-02-23T13:19:34.076Z,78.80
2023-02-23T13:22:20.925Z,78.70
2023-02-23T13:24:58.549Z,78.60
2023-02-23T13:27:35.577Z,78.40
2023-02-23T13:30:11.366Z,78.30
2023-02-23T13:32:43.433Z,78.20
2023-02-23T13:35:17.335Z,78.20
2023-02-23T13:37:54.051Z,78.00
2023-02-23T13:40:35.782Z,77.90
2023-02-23T13:43:17.756Z,77.80
2023-02-23T13:46:03.497Z,77.80
2023-02-23T13:48:56.192Z,77.80
2023-02-23T13:51:37.600Z,77.80
2023-02-23T13:54:24.806Z,77.40
2023-02-23T13:57:01.950Z,77.20
2023-02-23T13:59:42.308Z,77.40
2023-02-23T14:02:34.712Z,77.30
2023-02-23T14:05:17.150Z,77.20
2023-02-23T14:07:53.740Z,77.30
2023-02-23T14:10:29.767Z,77.30
2023-02-23T14:13:27.594Z,77.40
2023-02-23T14:16:16.040Z,77.50
2023-02-23T14:18:58.010Z,77.60
2023-02-23T14:21:34.804Z,77.70
2023-02-23T14:24:17.810Z,77.70
2023-02-23T14:27:40.311Z,77.50
2023-02-23T14:30:22.801Z,77.40
2023-02-23T14:33:10.133Z,77.50
2023-02-23T14:35:53.023Z,77.70
2023-02-23T14:38:47.381Z,77.70
2023-02-23T14:41:22.352Z,77.80
2023-02-23T14:44:00.232Z,77.90
2023-02-23T14:46:37.350Z,78.00
2023-02-23T14:49:17.702Z,77.90
2023-02-23T14:51:52.600Z,77.80
2023-02-23T14:54:29.912Z,77.70
2023-02-23T14:57:04.828Z,77.70
2023-02-23T14:59:42.824Z,77.60
2023-02-23T15:02:24.325Z,77.70
2023-02-23T15:04:56.811Z,77.70
2023-02-23T15:07:32.962Z,77.90
2023-02-23T15:10:10.592Z,77.90
2023-02-23T15:12:42.912Z,77.80
2023-02-23T15:15:18.522Z,77.70
2023-02-23T15:17:56.307Z,77.80
2023-02-23T15:23:09.150Z,77.80
2023-02-23T15:25:41.685Z,78.00
2023-02-23T15:28:32.653Z,78.10
2023-02-23T15:31:12.883Z,78.30
2023-02-23T15:33:50.892Z,78.20
2023-02-23T15:36:28.725Z,78.20
2023-02-23T15:39:03.950Z,78.20
2023-02-23T15:41:38.428Z,78.30
2023-02-23T15:44:15.019Z,78.30
2023-02-23T15:46:52.708Z,78.40
2023-02-23T15:49:31.851Z,78.50
2023-02-23T15:52:07.280Z,78.60
2023-02-23T15:54:50.738Z,78.70
2023-02-23T15:57:30.499Z,78.80
2023-02-23T16:00:16.554Z,78.90
2023-02-23T16:02:49.004Z,78.90
2023-02-23T16:05:25.891Z,78.90
2023-02-23T16:08:06.345Z,79.00
2023-02-23T16:10:47.078Z,79.10
2023-02-23T16:13:21.767Z,79.10
2023-02-23T16:15:55.137Z,79.10
2023-02-23T16:18:37.213Z,79.20
2023-02-23T16:21:17.085Z,79.30
2023-02-23T16:23:52.205Z,79.30
2023-02-23T16:26:27.248Z,79.40
2023-02-23T16:29:02.148Z,79.40
2023-02-23T16:31:43.532Z,79.40
2023-02-23T16:34:23.983Z,79.50
2023-02-23T16:37:00.808Z,79.50
2023-02-23T16:39:34.358Z,79.50
2023-02-23T16:42:06.402Z,79.40
2023-02-23T16:44:43.705Z,79.50
2023-02-23T16:47:37.978Z,79.50
2023-02-23T16:50:20.193Z,79.50
2023-02-23T16:52:55.669Z,79.50
2023-02-23T16:55:29.220Z,79.50
2023-02-23T16:58:03.990Z,79.60
2023-02-23T17:00:36.365Z,79.60
2023-02-23T17:03:16.451Z,79.70
2023-02-23T17:05:48.861Z,79.70
2023-02-23T17:08:24.530Z,79.80
2023-02-23T17:10:57.453Z,79.80
2023-02-23T17:13:33.357Z,79.80
2023-02-23T17:16:07.822Z,79.80
2023-02-23T17:18:42.804Z,79.90
2023-02-23T17:21:16.283Z,79.90
2023-02-23T17:24:02.982Z,79.90
2023-02-23T17:26:35.504Z,80.00
2023-02-23T17:29:11.279Z,80.00
2023-02-23T17:31:43.445Z,80.10
2023-02-23T17:34:15.567Z,80.10
2023-02-23T17:36:47.387Z,80.10
2023-02-23T17:39:22.106Z,80.10
2023-02-23T17:41:55.379Z,80.10
2023-02-23T17:44:29.458Z,80.10
2023-02-23T17:47:01.570Z,80.10
2023-02-23T17:49:33.604Z,80.10
2023-02-23T17:52:05.925Z,80.00
2023-02-23T17:54:40.577Z,80.00
2023-02-23T17:57:13.348Z,80.00
2023-02-23T17:59:45.419Z,80.00
2023-02-23T18:02:20.871Z,80.00
2023-02-23T18:04:53.190Z,80.10
2023-02-23T18:07:25.315Z,81.10
2023-02-23T18:09:59.947Z,82.60
2023-02-23T18:12:32.583Z,83.40
2023-02-23T18:15:05.653Z,83.80
2023-02-23T18:17:37.869Z,84.00
2023-02-23T18:20:15.051Z,83.70
2023-02-23T18:22:47.394Z,83.10
2023-02-23T18:25:25.591Z,82.40
2023-02-23T18:27:59.234Z,81.30
2023-02-23T18:30:31.358Z,80.50
2023-02-23T18:33:04.490Z,79.60
2023-02-23T18:35:39.047Z,78.70
2023-02-23T18:38:14.160Z,77.90
2023-02-23T18:40:49.139Z,77.00
2023-02-23T18:43:21.157Z,76.40
2023-02-23T18:45:53.184Z,75.70
2023-02-23T18:48:25.339Z,75.10
2023-02-23T18:50:59.226Z,74.50
2023-02-23T18:53:31.606Z,73.90
2023-02-23T18:56:12.534Z,73.40
2023-02-23T18:58:45.170Z,72.80
2023-02-23T19:01:20.806Z,72.60
2023-02-23T19:03:54.029Z,72.30
2023-02-23T19:06:26.959Z,72.10
2023-02-23T19:09:00.171Z,71.90
2023-02-23T19:11:36.026Z,71.70
2023-02-23T19:14:10.617Z,71.50
2023-02-23T19:16:43.579Z,71.20
2023-02-23T19:19:16.205Z,70.70
2023-02-23T19:21:48.223Z,70.40
2023-02-23T19:24:20.727Z,70.00
2023-02-23T19:26:55.329Z,70.20
2023-02-23T19:29:27.416Z,69.30
2023-02-23T19:31:59.576Z,69.10
2023-02-23T19:34:31.698Z,68.80
2023-02-23T19:37:03.865Z,68.60
2023-02-23T19:39:36.295Z,68.40
2023-02-23T19:42:10.949Z,68.30
2023-02-23T19:44:43.235Z,68.10
2023-02-23T19:47:15.285Z,68.20
2023-02-23T19:49:47.360Z,68.00
2023-02-23T19:52:19.584Z,68.00
2023-02-23T19:54:54.130Z,68.00
2023-02-23T19:57:28.928Z,67.90
2023-02-23T20:00:00.955Z,67.80
2023-02-23T20:02:33.130Z,67.90
2023-02-23T20:05:05.679Z,67.90
2023-02-23T20:07:37.809Z,68.00
2023-02-23T20:10:16.132Z,67.90
2023-02-23T20:12:51.049Z,67.80
2023-02-23T20:15:23.047Z,67.80
2023-02-23T20:17:55.061Z,67.80
2023-02-23T20:20:29.437Z,67.80
2023-02-23T20:23:07.942Z,67.80
2023-02-23T20:25:44.395Z,67.90
2023-02-23T20:28:19.029Z,67.90
2023-02-23T20:30:51.378Z,67.80
2023-02-23T20:33:23.424Z,67.70
2023-02-23T20:35:55.565Z,67.60
2023-02-23T20:38:27.618Z,67.50
2023-02-23T20:41:03.153Z,67.40
2023-02-23T20:43:39.234Z,67.30
2023-02-23T20:46:20.191Z,67.30
2023-02-23T20:48:52.294Z,67.40
2023-02-23T20:51:27.566Z,67.40
2023-02-23T20:54:19.987Z,67.60
2023-02-23T20:57:07.730Z,67.40
2023-02-23T20:59:48.951Z,67.40
2023-02-23T21:02:21.265Z,67.40
2023-02-23T21:04:53.511Z,67.50
2023-02-23T21:07:25.564Z,67.50
2023-02-23T21:10:00.521Z,67.60
2023-02-23T21:12:32.545Z,67.60
2023-02-23T21:15:09.380Z,67.50
2023-02-23T21:17:45.034Z,67.50
2023-02-23T21:20:20.029Z,67.40
2023-02-23T21:22:53.224Z,67.50
2023-02-23T21:25:26.348Z,67.40
2023-02-23T21:28:02.111Z,67.30
2023-02-23T21:30:39.471Z,67.80
2023-02-23T21:33:11.535Z,67.30
2023-02-23T21:35:46.710Z,67.20
2023-02-23T21:38:19.320Z,67.10
2023-02-23T21:40:51.592Z,67.00
2023-02-23T21:43:28.059Z,67.00
2023-02-23T21:46:10.054Z,67.10
2023-02-23T21:48:43.088Z,67.10
2023-02-23T21:51:16.343Z,67.20
2023-02-23T21:53:48.325Z,67.30
2023-02-23T21:56:24.550Z,67.30
2023-02-23T21:58:56.744Z,67.40
2023-02-23T22:01:36.526Z,67.50
2023-02-23T22:04:11.661Z,67.50
2023-02-23T22:06:44.666Z,67.60
2023-02-23T22:09:16.751Z,67.60
2023-02-23T22:11:51.742Z,67.80
2023-02-23T22:14:24.193Z,67.90
2023-02-23T22:16:59.175Z,67.90
2023-02-23T22:19:31.471Z,68.00
2023-02-23T22:22:03.527Z,68.00
2023-02-23T22:24:35.530Z,68.00
2023-02-23T22:27:07.845Z,68.10
2023-02-23T22:29:39.837Z,68.30
2023-02-23T22:32:14.697Z,68.50
2023-02-23T22:34:46.868Z,68.70
2023-02-23T22:37:22.004Z,68.70
2023-02-23T22:39:54.213Z,68.70
2023-02-23T22:42:29.682Z,68.80
2023-02-23T22:45:01.814Z,68.80
2023-02-23T22:47:36.704Z,68.90
2023-02-23T22:50:12.175Z,69.00
2023-02-23T22:52:44.361Z,68.90
2023-02-23T22:55:16.652Z,68.90
2023-02-23T22:57:48.861Z,68.90
2023-02-23T23:00:21.638Z,69.00
2023-02-23T23:02:56.216Z,69.00
2023-02-23T23:05:28.300Z,69.10
2023-02-23T23:08:00.315Z,69.30
2023-02-23T23:10:32.373Z,69.30
2023-02-23T23:13:05.381Z,69.50
2023-02-23T23:15:40.703Z,69.50
2023-02-23T23:18:20.830Z,69.60
2023-02-23T23:20:55.456Z,69.60
2023-02-23T23:23:27.450Z,69.40
2023-02-23T23:26:00.035Z,69.80
2023-02-23T23:28:40.126Z,69.30
2023-02-23T23:31:12.167Z,69.20
2023-02-23T23:33:49.613Z,69.30
2023-02-23T23:36:24.126Z,69.20
2023-02-23T23:38:56.858Z,69.20
2023-02-23T23:41:30.790Z,69.10
2023-02-23T23:44:05.366Z,69.20
2023-02-23T23:46:42.688Z,69.40
2023-02-23T23:49:19.480Z,69.50
2023-02-23T23:51:56.278Z,69.50
2023-02-23T23:54:32.972Z,69.60
2023-02-23T23:57:06.884Z,69.50
2023-02-23T23:59:46.009Z,69.60
